sensor_id;sensor_type;location;lat;lon;timestamp;P1;durP1;ratioP1;P2;durP2;ratioP2
33714;SDS011;20043;50.998;4.754;2023-03-04T00:01:18;28.63;;;10.50;;
33714;SDS011;20043;50.998;4.754;2023-03-04T00:03:44;34.08;;;11.35;;
33714;SDS011;20043;50.998;4.754;2023-03-04T00:06:10;25.95;;;10.02;;
33714;SDS011;20043;50.998;4.754;2023-03-04T00:08:35;23.35;;;9.95;;
33714;SDS011;20043;50.998;4.754;2023-03-04T00:11:02;29.02;;;10.23;;
33714;SDS011;20043;50.998;4.754;2023-03-04T00:13:28;31.23;;;10.88;;
33714;SDS011;20043;50.998;4.754;2023-03-04T00:15:53;33.33;;;11.13;;
33714;SDS011;20043;50.998;4.754;2023-03-04T00:18:19;26.70;;;11.13;;
33714;SDS011;20043;50.998;4.754;2023-03-04T00:20:47;26.90;;;10.88;;
33714;SDS011;20043;50.998;4.754;2023-03-04T00:23:14;25.60;;;11.45;;
33714;SDS011;20043;50.998;4.754;2023-03-04T00:25:40;31.83;;;11.23;;
33714;SDS011;20043;50.998;4.754;2023-03-04T00:28:06;31.17;;;11.73;;
33714;SDS011;20043;50.998;4.754;2023-03-04T00:30:31;28.30;;;11.55;;
33714;SDS011;20043;50.998;4.754;2023-03-04T00:32:57;30.55;;;11.27;;
33714;SDS011;20043;50.998;4.754;2023-03-04T00:35:22;33.70;;;10.40;;
33714;SDS011;20043;50.998;4.754;2023-03-04T00:37:48;26.75;;;10.38;;
33714;SDS011;20043;50.998;4.754;2023-03-04T00:40:13;29.73;;;10.18;;
33714;SDS011;20043;50.998;4.754;2023-03-04T00:42:39;25.05;;;10.50;;
33714;SDS011;20043;50.998;4.754;2023-03-04T00:45:05;35.88;;;10.13;;
33714;SDS011;20043;50.998;4.754;2023-03-04T00:47:31;26.85;;;9.50;;
33714;SDS011;20043;50.998;4.754;2023-03-04T00:49:56;27.10;;;9.82;;
33714;SDS011;20043;50.998;4.754;2023-03-04T00:52:22;32.22;;;9.93;;
33714;SDS011;20043;50.998;4.754;2023-03-04T00:54:48;26.75;;;9.38;;
33714;SDS011;20043;50.998;4.754;2023-03-04T00:57:13;24.90;;;8.98;;
33714;SDS011;20043;50.998;4.754;2023-03-04T00:59:39;31.33;;;8.73;;
33714;SDS011;20043;50.998;4.754;2023-03-04T01:02:04;30.63;;;9.07;;
33714;SDS011;20043;50.998;4.754;2023-03-04T01:04:30;23.52;;;7.43;;
33714;SDS011;20043;50.998;4.754;2023-03-04T01:06:56;30.15;;;9.32;;
33714;SDS011;20043;50.998;4.754;2023-03-04T01:09:22;26.05;;;9.35;;
33714;SDS011;20043;50.998;4.754;2023-03-04T01:11:47;25.27;;;8.82;;
33714;SDS011;20043;50.998;4.754;2023-03-04T01:14:13;29.70;;;9.32;;
33714;SDS011;20043;50.998;4.754;2023-03-04T01:16:38;33.15;;;8.23;;
33714;SDS011;20043;50.998;4.754;2023-03-04T01:19:04;35.08;;;9.75;;
33714;SDS011;20043;50.998;4.754;2023-03-04T01:21:29;31.40;;;9.60;;
33714;SDS011;20043;50.998;4.754;2023-03-04T01:23:55;33.00;;;10.27;;
33714;SDS011;20043;50.998;4.754;2023-03-04T01:26:20;25.85;;;8.95;;
33714;SDS011;20043;50.998;4.754;2023-03-04T01:28:46;28.33;;;9.52;;
33714;SDS011;20043;50.998;4.754;2023-03-04T01:31:12;24.65;;;8.45;;
33714;SDS011;20043;50.998;4.754;2023-03-04T01:33:37;32.22;;;9.98;;
33714;SDS011;20043;50.998;4.754;2023-03-04T01:36:03;26.38;;;9.75;;
33714;SDS011;20043;50.998;4.754;2023-03-04T01:38:28;27.60;;;9.55;;
33714;SDS011;20043;50.998;4.754;2023-03-04T01:40:54;22.98;;;8.38;;
33714;SDS011;20043;50.998;4.754;2023-03-04T01:43:29;22.23;;;8.70;;
33714;SDS011;20043;50.998;4.754;2023-03-04T01:45:55;25.58;;;8.65;;
33714;SDS011;20043;50.998;4.754;2023-03-04T01:48:35;23.23;;;8.05;;
33714;SDS011;20043;50.998;4.754;2023-03-04T01:51:02;24.75;;;8.30;;
33714;SDS011;20043;50.998;4.754;2023-03-04T01:53:30;29.20;;;8.65;;
33714;SDS011;20043;50.998;4.754;2023-03-04T01:55:58;26.75;;;8.55;;
33714;SDS011;20043;50.998;4.754;2023-03-04T01:58:29;25.08;;;8.90;;
33714;SDS011;20043;50.998;4.754;2023-03-04T02:00:56;25.98;;;8.93;;
33714;SDS011;20043;50.998;4.754;2023-03-04T02:03:22;24.25;;;9.13;;
33714;SDS011;20043;50.998;4.754;2023-03-04T02:05:49;24.42;;;7.63;;
33714;SDS011;20043;50.998;4.754;2023-03-04T02:08:17;25.08;;;8.30;;
33714;SDS011;20043;50.998;4.754;2023-03-04T02:10:44;29.27;;;8.43;;
33714;SDS011;20043;50.998;4.754;2023-03-04T02:13:11;31.73;;;8.73;;
33714;SDS011;20043;50.998;4.754;2023-03-04T02:15:37;24.02;;;7.57;;
33714;SDS011;20043;50.998;4.754;2023-03-04T02:18:22;24.67;;;7.97;;
33714;SDS011;20043;50.998;4.754;2023-03-04T02:23:29;26.40;;;6.80;;
33714;SDS011;20043;50.998;4.754;2023-03-04T02:26:19;20.40;;;7.43;;
33714;SDS011;20043;50.998;4.754;2023-03-04T02:28:47;23.17;;;7.47;;
33714;SDS011;20043;50.998;4.754;2023-03-04T02:33:56;32.78;;;7.85;;
33714;SDS011;20043;50.998;4.754;2023-03-04T02:36:23;25.40;;;7.35;;
33714;SDS011;20043;50.998;4.754;2023-03-04T02:38:50;30.67;;;7.10;;
33714;SDS011;20043;50.998;4.754;2023-03-04T02:41:18;30.15;;;7.03;;
33714;SDS011;20043;50.998;4.754;2023-03-04T02:43:51;26.25;;;7.18;;
33714;SDS011;20043;50.998;4.754;2023-03-04T02:46:18;25.27;;;6.50;;
33714;SDS011;20043;50.998;4.754;2023-03-04T02:48:44;26.45;;;7.00;;
33714;SDS011;20043;50.998;4.754;2023-03-04T02:51:10;26.85;;;6.30;;
33714;SDS011;20043;50.998;4.754;2023-03-04T02:53:35;28.35;;;6.75;;
33714;SDS011;20043;50.998;4.754;2023-03-04T02:56:01;27.67;;;6.30;;
33714;SDS011;20043;50.998;4.754;2023-03-04T02:58:27;23.23;;;5.78;;
33714;SDS011;20043;50.998;4.754;2023-03-04T03:00:52;31.88;;;6.45;;
33714;SDS011;20043;50.998;4.754;2023-03-04T03:03:18;28.35;;;6.18;;
33714;SDS011;20043;50.998;4.754;2023-03-04T03:05:43;20.92;;;5.68;;
33714;SDS011;20043;50.998;4.754;2023-03-04T03:08:09;31.23;;;6.90;;
33714;SDS011;20043;50.998;4.754;2023-03-04T03:10:35;41.90;;;7.03;;
33714;SDS011;20043;50.998;4.754;2023-03-04T03:13:00;22.45;;;6.50;;
33714;SDS011;20043;50.998;4.754;2023-03-04T03:15:26;21.20;;;6.30;;
33714;SDS011;20043;50.998;4.754;2023-03-04T03:17:52;28.27;;;5.70;;
33714;SDS011;20043;50.998;4.754;2023-03-04T03:20:17;31.80;;;6.82;;
33714;SDS011;20043;50.998;4.754;2023-03-04T03:22:43;25.83;;;6.28;;
33714;SDS011;20043;50.998;4.754;2023-03-04T03:25:09;34.97;;;7.00;;
33714;SDS011;20043;50.998;4.754;2023-03-04T03:27:36;31.33;;;6.72;;
33714;SDS011;20043;50.998;4.754;2023-03-04T03:30:02;30.77;;;6.22;;
33714;SDS011;20043;50.998;4.754;2023-03-04T03:32:28;27.70;;;6.68;;
33714;SDS011;20043;50.998;4.754;2023-03-04T03:34:54;32.22;;;6.85;;
33714;SDS011;20043;50.998;4.754;2023-03-04T03:37:20;24.52;;;6.28;;
33714;SDS011;20043;50.998;4.754;2023-03-04T03:39:45;32.10;;;6.63;;
33714;SDS011;20043;50.998;4.754;2023-03-04T03:42:11;34.05;;;8.25;;
33714;SDS011;20043;50.998;4.754;2023-03-04T03:44:36;27.63;;;6.85;;
33714;SDS011;20043;50.998;4.754;2023-03-04T03:47:02;31.75;;;6.45;;
33714;SDS011;20043;50.998;4.754;2023-03-04T03:49:28;27.70;;;7.13;;
33714;SDS011;20043;50.998;4.754;2023-03-04T03:51:53;29.13;;;6.40;;
33714;SDS011;20043;50.998;4.754;2023-03-04T03:54:19;27.85;;;6.78;;
33714;SDS011;20043;50.998;4.754;2023-03-04T03:56:45;25.70;;;6.40;;
33714;SDS011;20043;50.998;4.754;2023-03-04T03:59:10;28.75;;;6.78;;
33714;SDS011;20043;50.998;4.754;2023-03-04T04:01:36;31.38;;;6.35;;
33714;SDS011;20043;50.998;4.754;2023-03-04T04:04:01;23.17;;;6.45;;
33714;SDS011;20043;50.998;4.754;2023-03-04T04:06:27;23.88;;;6.18;;
33714;SDS011;20043;50.998;4.754;2023-03-04T04:08:53;27.73;;;6.65;;
33714;SDS011;20043;50.998;4.754;2023-03-04T04:11:18;28.30;;;6.07;;
33714;SDS011;20043;50.998;4.754;2023-03-04T04:13:44;29.77;;;6.20;;
33714;SDS011;20043;50.998;4.754;2023-03-04T04:16:10;30.30;;;6.93;;
33714;SDS011;20043;50.998;4.754;2023-03-04T04:18:36;24.85;;;5.85;;
33714;SDS011;20043;50.998;4.754;2023-03-04T04:21:02;31.27;;;6.20;;
33714;SDS011;20043;50.998;4.754;2023-03-04T04:23:28;26.05;;;6.55;;
33714;SDS011;20043;50.998;4.754;2023-03-04T04:25:54;33.13;;;6.10;;
33714;SDS011;20043;50.998;4.754;2023-03-04T04:28:20;34.22;;;5.97;;
33714;SDS011;20043;50.998;4.754;2023-03-04T04:30:45;31.33;;;5.18;;
33714;SDS011;20043;50.998;4.754;2023-03-04T04:33:11;29.95;;;6.00;;
33714;SDS011;20043;50.998;4.754;2023-03-04T04:35:37;23.77;;;5.55;;
33714;SDS011;20043;50.998;4.754;2023-03-04T04:38:03;25.48;;;6.65;;
33714;SDS011;20043;50.998;4.754;2023-03-04T04:40:30;28.80;;;6.20;;
33714;SDS011;20043;50.998;4.754;2023-03-04T04:42:55;23.23;;;5.75;;
33714;SDS011;20043;50.998;4.754;2023-03-04T04:45:21;20.23;;;5.80;;
33714;SDS011;20043;50.998;4.754;2023-03-04T04:47:49;16.58;;;5.22;;
33714;SDS011;20043;50.998;4.754;2023-03-04T04:50:21;23.35;;;5.53;;
33714;SDS011;20043;50.998;4.754;2023-03-04T04:52:49;24.88;;;5.82;;
33714;SDS011;20043;50.998;4.754;2023-03-04T04:55:15;28.50;;;6.38;;
33714;SDS011;20043;50.998;4.754;2023-03-04T04:57:40;25.80;;;6.65;;
33714;SDS011;20043;50.998;4.754;2023-03-04T05:00:06;25.85;;;6.55;;
33714;SDS011;20043;50.998;4.754;2023-03-04T05:02:34;22.05;;;6.20;;
33714;SDS011;20043;50.998;4.754;2023-03-04T05:05:01;23.75;;;6.57;;
33714;SDS011;20043;50.998;4.754;2023-03-04T05:07:27;21.73;;;6.75;;
33714;SDS011;20043;50.998;4.754;2023-03-04T05:09:53;33.00;;;5.80;;
33714;SDS011;20043;50.998;4.754;2023-03-04T05:12:18;22.70;;;6.13;;
33714;SDS011;20043;50.998;4.754;2023-03-04T05:14:44;25.77;;;6.78;;
33714;SDS011;20043;50.998;4.754;2023-03-04T05:17:09;23.95;;;6.18;;
33714;SDS011;20043;50.998;4.754;2023-03-04T05:19:35;21.15;;;6.53;;
33714;SDS011;20043;50.998;4.754;2023-03-04T05:22:00;23.80;;;7.47;;
33714;SDS011;20043;50.998;4.754;2023-03-04T05:24:26;30.52;;;8.25;;
33714;SDS011;20043;50.998;4.754;2023-03-04T05:26:52;28.02;;;7.90;;
33714;SDS011;20043;50.998;4.754;2023-03-04T05:29:17;30.73;;;7.75;;
33714;SDS011;20043;50.998;4.754;2023-03-04T05:31:43;29.83;;;7.80;;
33714;SDS011;20043;50.998;4.754;2023-03-04T05:34:08;21.95;;;7.28;;
33714;SDS011;20043;50.998;4.754;2023-03-04T05:36:34;20.50;;;6.75;;
33714;SDS011;20043;50.998;4.754;2023-03-04T05:39:00;23.70;;;6.60;;
33714;SDS011;20043;50.998;4.754;2023-03-04T05:41:25;27.67;;;6.07;;
33714;SDS011;20043;50.998;4.754;2023-03-04T05:43:51;24.23;;;6.50;;
33714;SDS011;20043;50.998;4.754;2023-03-04T05:46:17;24.05;;;7.05;;
33714;SDS011;20043;50.998;4.754;2023-03-04T05:48:49;25.00;;;6.72;;
33714;SDS011;20043;50.998;4.754;2023-03-04T05:51:15;24.73;;;6.97;;
33714;SDS011;20043;50.998;4.754;2023-03-04T05:53:41;27.63;;;6.68;;
33714;SDS011;20043;50.998;4.754;2023-03-04T05:56:10;24.33;;;6.97;;
33714;SDS011;20043;50.998;4.754;2023-03-04T05:58:38;21.20;;;6.10;;
33714;SDS011;20043;50.998;4.754;2023-03-04T06:01:03;32.72;;;8.65;;
33714;SDS011;20043;50.998;4.754;2023-03-04T06:03:29;23.10;;;6.88;;
33714;SDS011;20043;50.998;4.754;2023-03-04T06:05:55;31.40;;;7.30;;
33714;SDS011;20043;50.998;4.754;2023-03-04T06:08:21;20.95;;;7.28;;
33714;SDS011;20043;50.998;4.754;2023-03-04T06:10:47;26.88;;;7.63;;
33714;SDS011;20043;50.998;4.754;2023-03-04T06:13:16;29.80;;;7.47;;
33714;SDS011;20043;50.998;4.754;2023-03-04T06:15:41;18.33;;;6.68;;
33714;SDS011;20043;50.998;4.754;2023-03-04T06:18:07;20.40;;;7.22;;
33714;SDS011;20043;50.998;4.754;2023-03-04T06:20:32;30.23;;;7.13;;
33714;SDS011;20043;50.998;4.754;2023-03-04T06:22:58;21.02;;;6.72;;
33714;SDS011;20043;50.998;4.754;2023-03-04T06:25:23;21.95;;;7.28;;
33714;SDS011;20043;50.998;4.754;2023-03-04T06:27:49;38.30;;;7.72;;
33714;SDS011;20043;50.998;4.754;2023-03-04T06:30:15;29.58;;;8.10;;
33714;SDS011;20043;50.998;4.754;2023-03-04T06:32:41;22.80;;;7.78;;
33714;SDS011;20043;50.998;4.754;2023-03-04T06:35:08;30.67;;;8.18;;
33714;SDS011;20043;50.998;4.754;2023-03-04T06:37:35;19.90;;;7.93;;
33714;SDS011;20043;50.998;4.754;2023-03-04T06:40:01;28.95;;;8.15;;
33714;SDS011;20043;50.998;4.754;2023-03-04T06:42:27;24.73;;;7.30;;
33714;SDS011;20043;50.998;4.754;2023-03-04T06:44:53;26.17;;;8.00;;
33714;SDS011;20043;50.998;4.754;2023-03-04T06:47:19;22.38;;;8.02;;
33714;SDS011;20043;50.998;4.754;2023-03-04T06:49:44;24.02;;;8.05;;
33714;SDS011;20043;50.998;4.754;2023-03-04T06:52:10;30.23;;;7.82;;
33714;SDS011;20043;50.998;4.754;2023-03-04T06:54:37;29.83;;;9.10;;
33714;SDS011;20043;50.998;4.754;2023-03-04T06:57:03;29.88;;;8.27;;
33714;SDS011;20043;50.998;4.754;2023-03-04T06:59:32;23.52;;;7.68;;
33714;SDS011;20043;50.998;4.754;2023-03-04T07:01:59;25.58;;;7.20;;
33714;SDS011;20043;50.998;4.754;2023-03-04T07:04:28;27.73;;;7.63;;
33714;SDS011;20043;50.998;4.754;2023-03-04T07:06:55;30.92;;;8.48;;
33714;SDS011;20043;50.998;4.754;2023-03-04T07:09:20;21.48;;;7.97;;
33714;SDS011;20043;50.998;4.754;2023-03-04T07:11:46;20.73;;;7.45;;
33714;SDS011;20043;50.998;4.754;2023-03-04T07:14:11;23.23;;;7.43;;
33714;SDS011;20043;50.998;4.754;2023-03-04T07:16:37;30.27;;;7.85;;
33714;SDS011;20043;50.998;4.754;2023-03-04T07:19:02;20.33;;;7.28;;
33714;SDS011;20043;50.998;4.754;2023-03-04T07:21:28;24.77;;;6.82;;
33714;SDS011;20043;50.998;4.754;2023-03-04T07:23:54;29.08;;;6.78;;
33714;SDS011;20043;50.998;4.754;2023-03-04T07:26:19;22.98;;;6.63;;
33714;SDS011;20043;50.998;4.754;2023-03-04T07:28:45;21.75;;;5.85;;
33714;SDS011;20043;50.998;4.754;2023-03-04T07:31:21;22.90;;;5.03;;
33714;SDS011;20043;50.998;4.754;2023-03-04T07:34:08;21.15;;;5.43;;
33714;SDS011;20043;50.998;4.754;2023-03-04T07:36:36;27.13;;;6.00;;
33714;SDS011;20043;50.998;4.754;2023-03-04T07:39:02;21.88;;;5.60;;
33714;SDS011;20043;50.998;4.754;2023-03-04T07:41:29;20.33;;;5.40;;
33714;SDS011;20043;50.998;4.754;2023-03-04T07:43:55;20.00;;;5.07;;
33714;SDS011;20043;50.998;4.754;2023-03-04T07:46:22;23.80;;;5.75;;
33714;SDS011;20043;50.998;4.754;2023-03-04T07:48:48;25.10;;;5.10;;
33714;SDS011;20043;50.998;4.754;2023-03-04T07:51:17;22.73;;;5.47;;
33714;SDS011;20043;50.998;4.754;2023-03-04T07:53:46;26.40;;;5.85;;
33714;SDS011;20043;50.998;4.754;2023-03-04T07:56:15;18.50;;;5.47;;
33714;SDS011;20043;50.998;4.754;2023-03-04T07:58:42;20.77;;;4.72;;
33714;SDS011;20043;50.998;4.754;2023-03-04T08:01:12;24.02;;;5.78;;
33714;SDS011;20043;50.998;4.754;2023-03-04T08:03:42;19.50;;;5.45;;
33714;SDS011;20043;50.998;4.754;2023-03-04T08:06:08;17.35;;;4.32;;
33714;SDS011;20043;50.998;4.754;2023-03-04T08:08:35;21.20;;;5.03;;
33714;SDS011;20043;50.998;4.754;2023-03-04T08:11:05;25.98;;;5.00;;
